createdAt,value
2023-03-17T00:02:59.165Z,1902.00
2023-03-17T00:06:59.283Z,1913.00
2023-03-17T00:10:59.420Z,1893.00
2023-03-17T00:14:59.589Z,1876.00
2023-03-17T00:18:59.780Z,1867.00
2023-03-17T00:23:00.010Z,1855.00
2023-03-17T00:27:00.189Z,1870.00
2023-03-17T00:31:00.394Z,1857.00
2023-03-17T00:35:00.540Z,1852.00
2023-03-17T02:23:03.904Z,1634.00
2023-03-17T02:27:03.869Z,1621.00
2023-03-17T02:31:03.804Z,1617.00
2023-03-17T02:35:03.810Z,1603.00
2023-03-17T03:11:03.641Z,1538.00
2023-03-17T03:15:03.637Z,1536.00
2023-03-17T03:19:03.561Z,1525.00
2023-03-17T03:23:03.795Z,1517.00
2023-03-17T03:27:03.753Z,1509.00
2023-03-17T03:31:03.752Z,1487.00
2023-03-17T03:35:03.672Z,1501.00
2023-03-17T03:39:03.699Z,1472.00
2023-03-17T03:43:13.038Z,1490.00
2023-03-17T03:47:04.534Z,1482.00
2023-03-17T03:51:03.520Z,1466.00
2023-03-17T03:55:03.495Z,1462.00
2023-03-17T03:59:03.428Z,1452.00
2023-03-17T04:03:03.436Z,1434.00
2023-03-17T04:07:03.339Z,1442.00
2023-03-17T04:11:03.319Z,1435.00
2023-03-17T04:15:03.294Z,1419.00
2023-03-17T04:19:03.257Z,1440.00
2023-03-17T04:23:03.209Z,1397.00
2023-03-17T04:27:05.804Z,1422.00
2023-03-17T04:31:03.124Z,1402.00
2023-03-17T04:35:03.090Z,1421.00
2023-03-17T04:39:03.069Z,1407.00
2023-03-17T04:43:03.625Z,1387.00
2023-03-17T04:47:03.033Z,1389.00
2023-03-17T04:51:02.964Z,1410.00
2023-03-17T04:55:02.922Z,1389.00
2023-03-17T04:59:02.907Z,1393.00
2023-03-17T05:03:03.491Z,1346.00
2023-03-17T05:07:02.824Z,1268.00
2023-03-17T05:11:02.789Z,1210.00
2023-03-17T05:15:02.754Z,1174.00
2023-03-17T05:19:02.837Z,1123.00
2023-03-17T05:23:02.759Z,1087.00
2023-03-17T05:27:02.736Z,1087.00
2023-03-17T05:31:02.782Z,1049.00
2023-03-17T05:35:02.630Z,1064.00
2023-03-17T05:39:02.606Z,1101.00
2023-03-17T05:43:02.636Z,1117.00
2023-03-17T05:47:02.514Z,1157.00
2023-03-17T05:51:02.476Z,1181.00
2023-03-17T05:55:02.517Z,1186.00
2023-03-17T05:59:02.434Z,1206.00
2023-03-17T06:03:02.519Z,1205.00
2023-03-17T06:07:02.492Z,1227.00
2023-03-17T06:11:02.496Z,1247.00
2023-03-17T06:15:02.449Z,1246.00
2023-03-17T06:19:02.385Z,1249.00
2023-03-17T06:23:05.474Z,1259.00
2023-03-17T06:27:02.345Z,1224.00
2023-03-17T06:31:03.687Z,1169.00
2023-03-17T06:35:02.332Z,1168.00
2023-03-17T06:39:02.590Z,1050.00
2023-03-17T06:43:02.738Z,1142.00
2023-03-17T06:47:02.826Z,1159.00
2023-03-17T06:51:02.956Z,1193.00
2023-03-17T06:55:02.971Z,1199.00
2023-03-17T06:59:03.038Z,1201.00
2023-03-17T07:03:03.152Z,1149.00
2023-03-17T07:07:03.222Z,1154.00
2023-03-17T07:11:03.293Z,1188.00
2023-03-17T07:15:03.374Z,1185.00
2023-03-17T07:19:03.476Z,1166.00
2023-03-17T07:23:03.514Z,1172.00
2023-03-17T07:27:03.629Z,1163.00
2023-03-17T07:31:03.802Z,1162.00
2023-03-17T07:35:03.697Z,1120.00
2023-03-17T07:39:03.625Z,1101.00
2023-03-17T07:43:03.609Z,1235.00
2023-03-17T07:47:03.667Z,1238.00
2023-03-17T07:51:03.646Z,1218.00
2023-03-17T07:55:03.631Z,1242.00
2023-03-17T07:59:03.642Z,1207.00
2023-03-17T08:03:10.281Z,1192.00
2023-03-17T08:07:04.624Z,1180.00
2023-03-17T08:11:03.787Z,1145.00
2023-03-17T08:15:05.810Z,1170.00
2023-03-17T08:19:04.027Z,1193.00
2023-03-17T08:23:04.029Z,1198.00
2023-03-17T08:27:04.152Z,1232.00
2023-03-17T08:31:04.238Z,1259.00
2023-03-17T08:35:04.278Z,1250.00
2023-03-17T08:39:04.180Z,1261.00
2023-03-17T08:43:04.345Z,1254.00
2023-03-17T08:47:04.485Z,1374.00
2023-03-17T08:51:04.481Z,1441.00
2023-03-17T08:55:04.453Z,1550.00
2023-03-17T08:59:04.451Z,1594.00
2023-03-17T09:03:04.388Z,1629.00
2023-03-17T09:07:04.629Z,1696.00
2023-03-17T09:11:05.742Z,1765.00
2023-03-17T09:15:04.281Z,1515.00
2023-03-17T09:19:04.222Z,1289.00
2023-03-17T09:23:04.197Z,1278.00
2023-03-17T09:27:04.158Z,1295.00
2023-03-17T09:31:04.366Z,1299.00
2023-03-17T09:35:04.316Z,1318.00
2023-03-17T09:39:06.565Z,1329.00
2023-03-17T09:43:04.468Z,1386.00
2023-03-17T09:47:04.505Z,1368.00
2023-03-17T09:51:04.940Z,1312.00
2023-03-17T09:55:04.611Z,799.00
2023-03-17T09:59:04.673Z,650.00
2023-03-17T10:03:04.860Z,613.00
2023-03-17T10:07:05.052Z,1057.00
2023-03-17T10:11:05.237Z,1295.00
2023-03-17T10:15:05.468Z,1198.00
2023-03-17T10:19:05.596Z,1303.00
2023-03-17T10:23:05.624Z,1323.00
2023-03-17T10:27:05.704Z,1354.00
2023-03-17T10:31:05.855Z,1272.00
2023-03-17T10:35:05.903Z,1239.00
2023-03-17T10:39:05.846Z,1366.00
2023-03-17T10:43:05.896Z,1482.00
2023-03-17T10:47:06.020Z,1344.00
2023-03-17T10:51:06.119Z,798.00
2023-03-17T10:55:06.112Z,527.00
2023-03-17T10:59:06.269Z,609.00
2023-03-17T11:03:06.377Z,1120.00
2023-03-17T11:07:06.886Z,1014.00
2023-03-17T11:11:06.660Z,1041.00
2023-03-17T11:15:06.692Z,1192.00
2023-03-17T11:19:06.757Z,932.00
2023-03-17T11:23:06.860Z,1017.00
2023-03-17T11:27:06.876Z,1100.00
2023-03-17T11:31:06.971Z,713.00
2023-03-17T11:35:07.049Z,648.00
2023-03-17T11:39:07.053Z,902.00
2023-03-17T11:43:07.120Z,1185.00
2023-03-17T11:47:07.145Z,881.00
2023-03-17T11:51:07.130Z,943.00
2023-03-17T11:55:07.329Z,831.00
2023-03-17T11:59:07.248Z,776.00
2023-03-17T12:03:07.255Z,795.00
2023-03-17T12:07:07.231Z,747.00
2023-03-17T12:11:07.267Z,557.00
2023-03-17T12:15:07.409Z,500.00
2023-03-17T12:19:07.528Z,561.00
2023-03-17T12:23:07.669Z,742.00
2023-03-17T12:27:07.692Z,1116.00
2023-03-17T12:31:07.750Z,1181.00
2023-03-17T12:35:07.829Z,1424.00
2023-03-17T12:39:07.817Z,1445.00
2023-03-17T12:43:07.844Z,1200.00
2023-03-17T12:47:07.876Z,1197.00
2023-03-17T12:51:07.969Z,550.00
2023-03-17T12:55:08.389Z,1067.00
2023-03-17T12:59:07.961Z,1027.00
2023-03-17T13:03:08.042Z,1031.00
2023-03-17T13:07:08.058Z,758.00
2023-03-17T13:11:08.086Z,602.00
2023-03-17T13:15:08.114Z,696.00
2023-03-17T13:19:08.158Z,969.00
2023-03-17T13:23:08.162Z,654.00
2023-03-17T13:27:08.200Z,857.00
2023-03-17T13:31:08.273Z,596.00
2023-03-17T13:35:08.299Z,799.00
2023-03-17T13:39:18.834Z,558.00
2023-03-17T13:43:09.284Z,537.00
2023-03-17T13:47:08.322Z,583.00
2023-03-17T13:51:08.228Z,484.00
2023-03-17T13:55:08.190Z,628.00
2023-03-17T13:59:08.193Z,826.00
2023-03-17T14:03:08.125Z,588.00
2023-03-17T14:07:08.077Z,655.00
2023-03-17T14:11:08.086Z,547.00
2023-03-17T14:15:08.597Z,727.00
2023-03-17T14:19:08.174Z,748.00
2023-03-17T14:23:08.178Z,660.00
2023-03-17T14:27:08.249Z,612.00
2023-03-17T14:31:08.266Z,641.00
2023-03-17T14:35:08.302Z,636.00
2023-03-17T14:39:08.335Z,677.00
2023-03-17T14:43:08.412Z,559.00
2023-03-17T14:47:10.634Z,637.00
2023-03-17T14:51:08.377Z,709.00
2023-03-17T14:55:08.402Z,662.00
2023-03-17T14:59:08.311Z,633.00
2023-03-17T15:03:08.293Z,663.00
2023-03-17T15:07:08.218Z,883.00
2023-03-17T15:11:08.194Z,917.00
2023-03-17T15:15:08.185Z,788.00
2023-03-17T15:19:08.210Z,662.00
2023-03-17T15:23:08.070Z,703.00
2023-03-17T15:27:08.042Z,602.00
2023-03-17T15:31:08.062Z,742.00
2023-03-17T15:35:08.004Z,733.00
2023-03-17T15:39:07.952Z,627.00
2023-03-17T15:43:07.919Z,611.00
2023-03-17T15:47:07.902Z,843.00
2023-03-17T15:51:07.861Z,987.00
2023-03-17T15:55:07.879Z,1207.00
2023-03-17T15:59:07.747Z,1352.00
2023-03-17T16:03:07.727Z,1409.00
2023-03-17T16:07:07.721Z,1413.00
2023-03-17T16:11:07.647Z,1401.00
2023-03-17T16:15:20.195Z,1581.00
2023-03-17T16:19:08.574Z,1540.00
2023-03-17T16:23:07.554Z,1609.00
2023-03-17T16:27:07.492Z,1454.00
2023-03-17T16:31:07.524Z,1496.00
2023-03-17T16:35:07.729Z,1659.00
2023-03-17T16:39:07.671Z,1342.00
2023-03-17T16:43:19.103Z,1345.00
2023-03-17T16:47:08.754Z,1338.00
2023-03-17T16:51:07.717Z,1355.00
2023-03-17T16:55:07.688Z,1597.00
2023-03-17T16:59:07.859Z,1610.00
2023-03-17T17:03:08.064Z,1717.00
2023-03-17T17:07:08.170Z,1782.00
2023-03-17T17:11:08.364Z,1711.00
2023-03-17T17:15:08.530Z,1608.00
2023-03-17T17:19:08.725Z,1776.00
2023-03-17T17:23:08.904Z,1789.00
2023-03-17T17:27:09.136Z,1792.00
2023-03-17T17:31:09.359Z,1785.00
2023-03-17T17:35:09.541Z,1693.00
2023-03-17T17:39:09.719Z,1675.00
2023-03-17T17:43:10.037Z,1733.00
2023-03-17T17:47:10.230Z,1675.00
2023-03-17T17:51:10.390Z,1576.00
2023-03-17T17:55:10.356Z,1625.00
2023-03-17T17:59:10.339Z,1732.00
2023-03-17T18:03:10.295Z,1586.00
2023-03-17T18:07:10.242Z,1593.00
2023-03-17T18:11:10.216Z,1541.00
2023-03-17T18:15:10.201Z,1593.00
2023-03-17T18:19:10.159Z,1748.00
2023-03-17T18:23:10.125Z,1637.00
2023-03-17T18:27:10.053Z,1598.00
2023-03-17T18:31:10.039Z,1540.00
2023-03-17T18:35:10.030Z,1506.00
2023-03-17T18:39:10.195Z,1494.00
2023-03-17T18:43:10.317Z,1472.00
2023-03-17T18:47:10.332Z,1557.00
2023-03-17T18:51:10.385Z,1638.00
2023-03-17T18:55:10.419Z,1696.00
2023-03-17T18:59:10.439Z,1884.00
2023-03-17T19:03:10.567Z,1704.00
2023-03-17T19:07:10.688Z,1864.00
2023-03-17T19:11:10.697Z,1566.00
2023-03-17T19:15:10.688Z,1554.00
2023-03-17T19:19:10.623Z,1590.00
2023-03-17T19:23:10.566Z,1408.00
2023-03-17T19:27:10.534Z,1499.00
2023-03-17T19:31:10.514Z,1527.00
2023-03-17T19:35:10.472Z,1593.00
2023-03-17T19:39:10.431Z,1725.00
2023-03-17T19:43:10.368Z,1762.00
2023-03-17T19:47:10.357Z,1834.00
2023-03-17T19:51:10.308Z,1873.00
2023-03-17T19:55:10.277Z,1819.00
2023-03-17T19:59:10.229Z,1837.00
2023-03-17T20:03:10.209Z,1812.00
2023-03-17T20:07:10.242Z,1830.00
2023-03-17T20:11:10.137Z,1753.00
2023-03-17T20:15:10.082Z,1888.00
2023-03-17T20:19:10.073Z,1796.00
2023-03-17T20:23:10.014Z,1712.00
2023-03-17T20:27:10.064Z,1620.00
2023-03-17T20:31:10.163Z,1632.00
2023-03-17T20:35:10.316Z,1257.00
2023-03-17T20:39:10.511Z,1450.00
2023-03-17T20:43:10.701Z,1577.00
2023-03-17T20:47:10.863Z,1453.00
2023-03-17T20:51:10.997Z,1749.00
2023-03-17T20:55:11.170Z,1690.00
2023-03-17T20:59:11.362Z,1714.00
2023-03-17T21:03:11.610Z,1694.00
2023-03-17T21:07:11.704Z,1596.00
2023-03-17T21:11:11.907Z,1662.00
2023-03-17T21:15:12.067Z,1605.00
2023-03-17T21:19:12.069Z,1601.00
2023-03-17T21:23:12.032Z,1597.00
2023-03-17T21:27:11.955Z,1509.00
2023-03-17T21:31:11.957Z,1698.00
2023-03-17T21:35:11.913Z,1696.00
2023-03-17T21:39:11.872Z,1658.00
2023-03-17T21:43:11.811Z,1717.00
2023-03-17T21:47:11.775Z,1556.00
2023-03-17T21:51:11.754Z,1660.00
2023-03-17T21:55:11.788Z,1763.00
2023-03-17T21:59:12.001Z,1717.00
2023-03-17T22:03:12.116Z,1593.00
2023-03-17T22:07:12.065Z,1650.00
2023-03-17T22:11:12.037Z,1711.00
2023-03-17T22:15:12.008Z,1701.00
2023-03-17T22:19:11.990Z,1685.00
2023-03-17T22:23:12.071Z,1816.00
2023-03-17T22:27:12.049Z,1863.00
2023-03-17T22:31:12.131Z,1925.00
2023-03-17T22:35:12.152Z,1851.00
2023-03-17T22:39:12.186Z,1926.00
2023-03-17T22:43:12.161Z,1909.00
2023-03-17T22:47:12.187Z,1848.00
2023-03-17T22:51:12.171Z,1826.00
2023-03-17T22:55:12.147Z,1866.00
2023-03-17T22:59:12.159Z,1916.00
2023-03-17T23:03:12.227Z,1681.00
2023-03-17T23:07:12.234Z,1836.00
2023-03-17T23:11:12.274Z,1827.00
2023-03-17T23:15:12.406Z,1763.00
2023-03-17T23:19:12.370Z,1705.00
2023-03-17T23:23:12.369Z,1817.00
2023-03-17T23:27:12.368Z,1750.00
2023-03-17T23:31:12.451Z,1791.00
2023-03-17T23:35:12.467Z,1790.00
2023-03-17T23:39:12.602Z,1764.00
2023-03-17T23:43:12.601Z,1745.00
2023-03-17T23:47:12.753Z,1777.00
2023-03-17T23:51:12.796Z,1698.00
2023-03-17T23:55:12.852Z,1614.00
2023-03-17T23:59:12.880Z,1640.00
